首页
METAR-TAF:

METAR-TAF

机场 :

Coningsby, 英格兰

纬度: 53-05N, 经度: 000-10W, 海拔: 7米

当前天气观测

该预报发布于1小时和4分钟前的23:50 UTC
风速2节,风向
温度 5°C
湿度 87%
气压 1013 hPa
能见度10公里或以上

METAR: EGXC 072350Z AUTO 09002KT 9999 FEW070/// 05/03 Q1013

时间: 01:54 (00:54 UTC)

预报

该预报发布于2小时和11分钟前的22:43 UTC
预报有效从08日的 00点(UTC)到 08日的 18点(UTC)
风速5节,风向
能见度10公里或以上
1500米以下无云,无积雨云
成为
从 08日的 06点(UTC)到 08日的 09点(UTC)
风速15节,风向东转东南
多云层高于800英尺
小雨
短暂存在
从 08日的 06点(UTC)到 08日的 18点(UTC)
风速18节,风向东转东南,有时为28节阵风
能見度: 6000
几率 30% :
短暂存在
从 08日的 07点(UTC)到 08日的 15点(UTC)
能見度: 3000
多云层高于500英尺
大雨

TAF: EGXC 072243Z 0800/0818 09005KT CAVOK BECMG 0806/0809 12015KT -RA BKN008 TEMPO 0806/0818 12018G28KT 6000 RA PROB30 TEMPO 0807/0815 3000 +RA BKN005

超过4000个机场的气象观测和天气预报(METAR&TAF报告)。

可查询的气象台以黄色和红色小点在地图上表示。

将鼠标移到小点上方,可查看气象台名称。

然后点击查看天气观测和预报。

如需切换地图:点击带黑十字的绿色按钮放大地图;点击带横线的绿色按钮缩小地图;或者点击绿色箭头查看邻近地区的地图。


METAR-TAF: